sensor_id;sensor_type;location;lat;lon;timestamp;P1;durP1;ratioP1;P2;durP2;ratioP2
17586;SDS011;8912;52.336;17.172;2022-08-02T00:00:48;7.50;;;3.92;;
17586;SDS011;8912;52.336;17.172;2022-08-02T00:03:21;6.40;;;4.10;;
17586;SDS011;8912;52.336;17.172;2022-08-02T00:05:50;4.82;;;4.20;;
17586;SDS011;8912;52.336;17.172;2022-08-02T00:08:20;5.97;;;4.10;;
17586;SDS011;8912;52.336;17.172;2022-08-02T00:10:50;4.45;;;4.00;;
17586;SDS011;8912;52.336;17.172;2022-08-02T00:13:19;4.00;;;3.70;;
17586;SDS011;8912;52.336;17.172;2022-08-02T00:15:48;4.55;;;3.83;;
17586;SDS011;8912;52.336;17.172;2022-08-02T00:18:17;3.80;;;3.50;;
17586;SDS011;8912;52.336;17.172;2022-08-02T00:20:46;5.00;;;4.05;;
17586;SDS011;8912;52.336;17.172;2022-08-02T00:23:14;5.60;;;3.95;;
17586;SDS011;8912;52.336;17.172;2022-08-02T00:25:43;6.78;;;4.10;;
17586;SDS011;8912;52.336;17.172;2022-08-02T00:28:23;4.03;;;3.63;;
17586;SDS011;8912;52.336;17.172;2022-08-02T00:30:55;7.82;;;4.30;;
17586;SDS011;8912;52.336;17.172;2022-08-02T00:33:25;4.45;;;3.90;;
17586;SDS011;8912;52.336;17.172;2022-08-02T00:36:14;4.70;;;4.30;;
17586;SDS011;8912;52.336;17.172;2022-08-02T00:38:43;6.00;;;4.35;;
17586;SDS011;8912;52.336;17.172;2022-08-02T00:41:13;5.40;;;4.35;;
17586;SDS011;8912;52.336;17.172;2022-08-02T00:43:47;5.00;;;4.47;;
17586;SDS011;8912;52.336;17.172;2022-08-02T00:46:18;4.28;;;3.65;;
17586;SDS011;8912;52.336;17.172;2022-08-02T00:48:47;8.00;;;4.32;;
17586;SDS011;8912;52.336;17.172;2022-08-02T00:51:16;7.07;;;4.13;;
17586;SDS011;8912;52.336;17.172;2022-08-02T00:53:45;9.18;;;4.20;;
17586;SDS011;8912;52.336;17.172;2022-08-02T00:56:13;4.90;;;4.05;;
17586;SDS011;8912;52.336;17.172;2022-08-02T00:58:42;4.05;;;3.65;;
17586;SDS011;8912;52.336;17.172;2022-08-02T01:01:12;6.47;;;3.83;;
17586;SDS011;8912;52.336;17.172;2022-08-02T01:03:42;4.80;;;3.40;;
17586;SDS011;8912;52.336;17.172;2022-08-02T01:06:11;4.22;;;3.90;;
17586;SDS011;8912;52.336;17.172;2022-08-02T01:08:39;5.40;;;3.30;;
17586;SDS011;8912;52.336;17.172;2022-08-02T01:11:10;4.25;;;3.85;;
17586;SDS011;8912;52.336;17.172;2022-08-02T01:13:38;4.57;;;3.40;;
17586;SDS011;8912;52.336;17.172;2022-08-02T01:16:10;6.13;;;3.47;;
17586;SDS011;8912;52.336;17.172;2022-08-02T01:18:50;4.15;;;3.80;;
17586;SDS011;8912;52.336;17.172;2022-08-02T01:24:36;4.18;;;3.78;;
17586;SDS011;8912;52.336;17.172;2022-08-02T01:27:22;5.25;;;3.30;;
17586;SDS011;8912;52.336;17.172;2022-08-02T01:30:02;3.85;;;3.55;;
17586;SDS011;8912;52.336;17.172;2022-08-02T01:32:34;4.78;;;3.72;;
17586;SDS011;8912;52.336;17.172;2022-08-02T01:35:09;4.28;;;3.97;;
17586;SDS011;8912;52.336;17.172;2022-08-02T01:37:42;5.03;;;3.83;;
17586;SDS011;8912;52.336;17.172;2022-08-02T01:40:17;5.82;;;3.55;;
17586;SDS011;8912;52.336;17.172;2022-08-02T01:42:51;4.63;;;3.90;;
17586;SDS011;8912;52.336;17.172;2022-08-02T01:45:26;5.38;;;3.92;;
17586;SDS011;8912;52.336;17.172;2022-08-02T01:47:59;4.07;;;3.78;;
17586;SDS011;8912;52.336;17.172;2022-08-02T01:50:31;5.07;;;4.50;;
17586;SDS011;8912;52.336;17.172;2022-08-02T01:53:02;5.78;;;3.80;;
17586;SDS011;8912;52.336;17.172;2022-08-02T01:55:34;4.20;;;3.80;;
17586;SDS011;8912;52.336;17.172;2022-08-02T01:58:25;6.07;;;3.90;;
17586;SDS011;8912;52.336;17.172;2022-08-02T02:00:57;5.32;;;4.00;;
17586;SDS011;8912;52.336;17.172;2022-08-02T02:03:28;7.63;;;4.25;;
17586;SDS011;8912;52.336;17.172;2022-08-02T02:05:59;5.03;;;3.90;;
17586;SDS011;8912;52.336;17.172;2022-08-02T02:08:31;4.38;;;3.97;;
17586;SDS011;8912;52.336;17.172;2022-08-02T02:11:04;4.90;;;4.40;;
17586;SDS011;8912;52.336;17.172;2022-08-02T02:13:54;4.53;;;4.05;;
17586;SDS011;8912;52.336;17.172;2022-08-02T02:16:26;4.00;;;3.70;;
17586;SDS011;8912;52.336;17.172;2022-08-02T02:18:58;5.07;;;4.57;;
17586;SDS011;8912;52.336;17.172;2022-08-02T02:21:28;6.63;;;4.57;;
17586;SDS011;8912;52.336;17.172;2022-08-02T02:24:00;8.80;;;4.68;;
17586;SDS011;8912;52.336;17.172;2022-08-02T02:26:37;5.32;;;4.80;;
17586;SDS011;8912;52.336;17.172;2022-08-02T02:29:18;5.13;;;4.43;;
17586;SDS011;8912;52.336;17.172;2022-08-02T02:31:50;5.07;;;4.40;;
17586;SDS011;8912;52.336;17.172;2022-08-02T02:34:24;4.50;;;4.10;;
17586;SDS011;8912;52.336;17.172;2022-08-02T02:36:55;5.18;;;4.68;;
17586;SDS011;8912;52.336;17.172;2022-08-02T02:39:28;6.82;;;4.30;;
17586;SDS011;8912;52.336;17.172;2022-08-02T02:42:00;5.63;;;5.05;;
17586;SDS011;8912;52.336;17.172;2022-08-02T02:44:30;4.97;;;4.57;;
17586;SDS011;8912;52.336;17.172;2022-08-02T02:47:02;4.35;;;4.00;;
17586;SDS011;8912;52.336;17.172;2022-08-02T02:49:34;5.32;;;4.60;;
17586;SDS011;8912;52.336;17.172;2022-08-02T02:52:03;5.07;;;4.57;;
17586;SDS011;8912;52.336;17.172;2022-08-02T02:54:33;4.90;;;4.55;;
17586;SDS011;8912;52.336;17.172;2022-08-02T02:57:05;6.22;;;4.80;;
17586;SDS011;8912;52.336;17.172;2022-08-02T02:59:34;5.00;;;4.60;;
17586;SDS011;8912;52.336;17.172;2022-08-02T03:02:16;5.18;;;4.35;;
17586;SDS011;8912;52.336;17.172;2022-08-02T03:04:45;4.95;;;4.28;;
17586;SDS011;8912;52.336;17.172;2022-08-02T03:07:24;6.90;;;4.30;;
17586;SDS011;8912;52.336;17.172;2022-08-02T03:09:53;4.93;;;4.25;;
17586;SDS011;8912;52.336;17.172;2022-08-02T03:12:22;4.38;;;3.97;;
17586;SDS011;8912;52.336;17.172;2022-08-02T03:14:58;5.47;;;4.07;;
17586;SDS011;8912;52.336;17.172;2022-08-02T03:17:41;6.28;;;4.22;;
17586;SDS011;8912;52.336;17.172;2022-08-02T03:20:11;4.88;;;4.47;;
17586;SDS011;8912;52.336;17.172;2022-08-02T03:22:42;5.28;;;4.30;;
17586;SDS011;8912;52.336;17.172;2022-08-02T03:25:12;4.45;;;4.05;;
17586;SDS011;8912;52.336;17.172;2022-08-02T03:27:42;4.60;;;3.97;;
17586;SDS011;8912;52.336;17.172;2022-08-02T03:30:11;4.80;;;4.40;;
17586;SDS011;8912;52.336;17.172;2022-08-02T03:32:43;4.00;;;3.70;;
17586;SDS011;8912;52.336;17.172;2022-08-02T03:35:14;5.35;;;4.22;;
17586;SDS011;8912;52.336;17.172;2022-08-02T03:37:51;4.47;;;4.18;;
17586;SDS011;8912;52.336;17.172;2022-08-02T03:40:21;4.63;;;4.20;;
17586;SDS011;8912;52.336;17.172;2022-08-02T03:42:50;5.13;;;4.63;;
17586;SDS011;8912;52.336;17.172;2022-08-02T03:45:20;4.82;;;4.43;;
17586;SDS011;8912;52.336;17.172;2022-08-02T03:47:50;7.13;;;4.80;;
17586;SDS011;8912;52.336;17.172;2022-08-02T03:50:24;5.20;;;4.63;;
17586;SDS011;8912;52.336;17.172;2022-08-02T03:52:54;4.53;;;4.13;;
17586;SDS011;8912;52.336;17.172;2022-08-02T03:55:23;5.20;;;4.55;;
17586;SDS011;8912;52.336;17.172;2022-08-02T03:57:52;5.10;;;4.68;;
17586;SDS011;8912;52.336;17.172;2022-08-02T04:00:22;5.35;;;4.68;;
17586;SDS011;8912;52.336;17.172;2022-08-02T04:02:52;5.05;;;4.65;;
17586;SDS011;8912;52.336;17.172;2022-08-02T04:05:21;4.78;;;4.38;;
17586;SDS011;8912;52.336;17.172;2022-08-02T04:07:50;4.47;;;4.07;;
17586;SDS011;8912;52.336;17.172;2022-08-02T04:10:38;4.13;;;3.83;;
17586;SDS011;8912;52.336;17.172;2022-08-02T04:13:27;4.97;;;4.10;;
17586;SDS011;8912;52.336;17.172;2022-08-02T04:16:04;5.80;;;4.32;;
17586;SDS011;8912;52.336;17.172;2022-08-02T04:18:42;4.80;;;4.10;;
17586;SDS011;8912;52.336;17.172;2022-08-02T04:21:16;6.65;;;4.57;;
17586;SDS011;8912;52.336;17.172;2022-08-02T04:23:47;5.22;;;4.40;;
17586;SDS011;8912;52.336;17.172;2022-08-02T04:26:18;4.57;;;4.22;;
17586;SDS011;8912;52.336;17.172;2022-08-02T04:28:54;4.95;;;4.55;;
17586;SDS011;8912;52.336;17.172;2022-08-02T04:31:23;5.82;;;4.53;;
17586;SDS011;8912;52.336;17.172;2022-08-02T04:33:54;4.97;;;4.55;;
17586;SDS011;8912;52.336;17.172;2022-08-02T04:36:25;5.50;;;4.53;;
17586;SDS011;8912;52.336;17.172;2022-08-02T04:38:57;4.75;;;4.20;;
17586;SDS011;8912;52.336;17.172;2022-08-02T04:41:35;7.43;;;5.10;;
17586;SDS011;8912;52.336;17.172;2022-08-02T04:44:10;6.15;;;4.75;;
17586;SDS011;8912;52.336;17.172;2022-08-02T04:46:38;4.72;;;4.32;;
17586;SDS011;8912;52.336;17.172;2022-08-02T04:49:09;5.15;;;4.75;;
17586;SDS011;8912;52.336;17.172;2022-08-02T04:51:39;4.68;;;4.20;;
17586;SDS011;8912;52.336;17.172;2022-08-02T04:54:09;4.03;;;3.70;;
17586;SDS011;8912;52.336;17.172;2022-08-02T04:56:39;5.18;;;4.72;;
17586;SDS011;8912;52.336;17.172;2022-08-02T04:59:08;4.70;;;4.30;;
17586;SDS011;8912;52.336;17.172;2022-08-02T05:01:38;4.35;;;3.95;;
17586;SDS011;8912;52.336;17.172;2022-08-02T05:04:09;4.88;;;4.35;;
17586;SDS011;8912;52.336;17.172;2022-08-02T05:06:38;6.15;;;4.88;;
17586;SDS011;8912;52.336;17.172;2022-08-02T05:09:06;5.50;;;4.63;;
17586;SDS011;8912;52.336;17.172;2022-08-02T05:11:35;5.45;;;4.70;;
17586;SDS011;8912;52.336;17.172;2022-08-02T05:14:04;6.00;;;5.18;;
17586;SDS011;8912;52.336;17.172;2022-08-02T05:16:33;5.30;;;4.82;;
17586;SDS011;8912;52.336;17.172;2022-08-02T05:19:01;5.22;;;4.72;;
17586;SDS011;8912;52.336;17.172;2022-08-02T05:21:31;5.47;;;4.95;;
17586;SDS011;8912;52.336;17.172;2022-08-02T05:24:00;5.60;;;4.72;;
17586;SDS011;8912;52.336;17.172;2022-08-02T05:26:29;4.53;;;4.13;;
17586;SDS011;8912;52.336;17.172;2022-08-02T05:28:57;5.10;;;4.60;;
17586;SDS011;8912;52.336;17.172;2022-08-02T05:31:26;7.10;;;5.22;;
17586;SDS011;8912;52.336;17.172;2022-08-02T05:33:54;8.05;;;4.80;;
17586;SDS011;8912;52.336;17.172;2022-08-02T05:36:23;5.43;;;4.63;;
17586;SDS011;8912;52.336;17.172;2022-08-02T05:38:53;4.20;;;3.90;;
17586;SDS011;8912;52.336;17.172;2022-08-02T05:41:31;6.05;;;4.20;;
17586;SDS011;8912;52.336;17.172;2022-08-02T05:43:59;4.57;;;4.10;;
17586;SDS011;8912;52.336;17.172;2022-08-02T05:46:28;7.22;;;3.35;;
17586;SDS011;8912;52.336;17.172;2022-08-02T05:48:57;5.68;;;3.75;;
17586;SDS011;8912;52.336;17.172;2022-08-02T05:51:27;5.15;;;3.08;;
17586;SDS011;8912;52.336;17.172;2022-08-02T05:54:07;5.47;;;3.38;;
17586;SDS011;8912;52.336;17.172;2022-08-02T05:56:43;4.38;;;3.90;;
17586;SDS011;8912;52.336;17.172;2022-08-02T05:59:16;5.68;;;3.38;;
17586;SDS011;8912;52.336;17.172;2022-08-02T06:01:51;3.35;;;2.97;;
17586;SDS011;8912;52.336;17.172;2022-08-02T06:04:25;4.20;;;3.35;;
17586;SDS011;8912;52.336;17.172;2022-08-02T06:07:00;4.88;;;3.40;;
17586;SDS011;8912;52.336;17.172;2022-08-02T06:09:34;5.15;;;3.58;;
17586;SDS011;8912;52.336;17.172;2022-08-02T06:12:05;4.20;;;3.30;;
17586;SDS011;8912;52.336;17.172;2022-08-02T06:14:38;4.68;;;3.40;;
17586;SDS011;8912;52.336;17.172;2022-08-02T06:17:09;3.65;;;2.50;;
17586;SDS011;8912;52.336;17.172;2022-08-02T06:19:38;4.70;;;2.80;;
17586;SDS011;8912;52.336;17.172;2022-08-02T06:22:18;3.13;;;2.70;;
17586;SDS011;8912;52.336;17.172;2022-08-02T06:25:09;3.95;;;2.80;;
17586;SDS011;8912;52.336;17.172;2022-08-02T06:27:59;4.43;;;2.53;;
17586;SDS011;8912;52.336;17.172;2022-08-02T06:30:37;6.18;;;2.83;;
17586;SDS011;8912;52.336;17.172;2022-08-02T06:33:06;5.80;;;2.75;;
17586;SDS011;8912;52.336;17.172;2022-08-02T06:35:40;5.75;;;2.80;;
17586;SDS011;8912;52.336;17.172;2022-08-02T06:38:14;4.53;;;2.40;;
17586;SDS011;8912;52.336;17.172;2022-08-02T06:40:50;4.32;;;2.80;;
17586;SDS011;8912;52.336;17.172;2022-08-02T06:43:24;5.10;;;2.10;;
17586;SDS011;8912;52.336;17.172;2022-08-02T06:45:58;7.22;;;2.33;;
17586;SDS011;8912;52.336;17.172;2022-08-02T06:48:47;3.25;;;2.22;;
17586;SDS011;8912;52.336;17.172;2022-08-02T06:51:16;6.28;;;2.90;;
17586;SDS011;8912;52.336;17.172;2022-08-02T06:53:45;7.50;;;2.83;;
17586;SDS011;8912;52.336;17.172;2022-08-02T06:56:16;4.70;;;2.50;;
17586;SDS011;8912;52.336;17.172;2022-08-02T06:58:45;4.00;;;1.90;;
17586;SDS011;8912;52.336;17.172;2022-08-02T07:01:14;6.88;;;2.00;;
17586;SDS011;8912;52.336;17.172;2022-08-02T07:03:45;2.80;;;1.73;;
17586;SDS011;8912;52.336;17.172;2022-08-02T07:06:13;5.25;;;1.75;;
17586;SDS011;8912;52.336;17.172;2022-08-02T07:08:42;3.47;;;1.90;;
17586;SDS011;8912;52.336;17.172;2022-08-02T07:11:32;6.28;;;1.95;;
17586;SDS011;8912;52.336;17.172;2022-08-02T07:14:01;4.95;;;2.00;;
17586;SDS011;8912;52.336;17.172;2022-08-02T07:16:29;7.38;;;2.28;;
17586;SDS011;8912;52.336;17.172;2022-08-02T07:18:59;4.88;;;1.92;;
17586;SDS011;8912;52.336;17.172;2022-08-02T07:21:27;4.97;;;1.98;;
17586;SDS011;8912;52.336;17.172;2022-08-02T07:24:16;3.00;;;1.70;;
17586;SDS011;8912;52.336;17.172;2022-08-02T07:26:46;4.22;;;2.03;;
17586;SDS011;8912;52.336;17.172;2022-08-02T07:29:35;3.53;;;2.17;;
17586;SDS011;8912;52.336;17.172;2022-08-02T07:32:13;5.10;;;2.03;;
17586;SDS011;8912;52.336;17.172;2022-08-02T07:34:42;5.32;;;2.22;;
17586;SDS011;8912;52.336;17.172;2022-08-02T07:37:19;6.22;;;2.50;;
17586;SDS011;8912;52.336;17.172;2022-08-02T07:40:09;3.25;;;1.90;;
17586;SDS011;8912;52.336;17.172;2022-08-02T07:42:42;4.30;;;2.10;;
17586;SDS011;8912;52.336;17.172;2022-08-02T07:45:11;4.95;;;2.13;;
17586;SDS011;8912;52.336;17.172;2022-08-02T07:47:41;5.38;;;2.22;;
17586;SDS011;8912;52.336;17.172;2022-08-02T07:50:11;6.13;;;2.17;;
17586;SDS011;8912;52.336;17.172;2022-08-02T07:52:42;9.65;;;2.30;;
17586;SDS011;8912;52.336;17.172;2022-08-02T07:55:12;4.40;;;1.77;;
17586;SDS011;8912;52.336;17.172;2022-08-02T07:57:43;6.20;;;1.77;;
17586;SDS011;8912;52.336;17.172;2022-08-02T08:00:13;3.47;;;1.60;;
17586;SDS011;8912;52.336;17.172;2022-08-02T08:02:43;6.07;;;1.42;;
17586;SDS011;8912;52.336;17.172;2022-08-02T08:05:12;3.55;;;1.58;;
17586;SDS011;8912;52.336;17.172;2022-08-02T08:07:41;5.18;;;1.63;;
17586;SDS011;8912;52.336;17.172;2022-08-02T08:10:10;2.78;;;1.30;;
17586;SDS011;8912;52.336;17.172;2022-08-02T08:12:38;2.60;;;1.20;;
17586;SDS011;8912;52.336;17.172;2022-08-02T08:15:09;5.55;;;1.33;;
17586;SDS011;8912;52.336;17.172;2022-08-02T08:17:38;3.70;;;1.52;;
17586;SDS011;8912;52.336;17.172;2022-08-02T08:20:07;2.75;;;1.27;;
17586;SDS011;8912;52.336;17.172;2022-08-02T08:22:41;3.15;;;1.40;;
17586;SDS011;8912;52.336;17.172;2022-08-02T08:25:10;3.58;;;1.40;;
17586;SDS011;8912;52.336;17.172;2022-08-02T08:27:46;3.63;;;1.25;;
17586;SDS011;8912;52.336;17.172;2022-08-02T08:30:16;5.30;;;1.85;;
17586;SDS011;8912;52.336;17.172;2022-08-02T08:32:46;8.73;;;1.85;;
17586;SDS011;8912;52.336;17.172;2022-08-02T08:35:15;3.33;;;1.48;;
17586;SDS011;8912;52.336;17.172;2022-08-02T08:37:44;2.67;;;1.30;;
17586;SDS011;8912;52.336;17.172;2022-08-02T08:40:13;4.35;;;1.60;;
17586;SDS011;8912;52.336;17.172;2022-08-02T08:42:45;5.10;;;1.67;;
17586;SDS011;8912;52.336;17.172;2022-08-02T08:45:14;3.05;;;1.48;;
17586;SDS011;8912;52.336;17.172;2022-08-02T08:47:46;1.77;;;1.23;;
17586;SDS011;8912;52.336;17.172;2022-08-02T08:50:23;4.88;;;1.50;;
17586;SDS011;8912;52.336;17.172;2022-08-02T08:52:53;4.22;;;1.30;;
17586;SDS011;8912;52.336;17.172;2022-08-02T08:55:29;3.17;;;1.30;;
17586;SDS011;8912;52.336;17.172;2022-08-02T08:57:59;2.83;;;1.60;;
17586;SDS011;8912;52.336;17.172;2022-08-02T09:00:31;3.08;;;1.23;;
17586;SDS011;8912;52.336;17.172;2022-08-02T09:03:02;2.97;;;1.58;;
17586;SDS011;8912;52.336;17.172;2022-08-02T09:05:33;3.17;;;1.52;;
17586;SDS011;8912;52.336;17.172;2022-08-02T09:08:02;2.35;;;1.02;;
17586;SDS011;8912;52.336;17.172;2022-08-02T09:10:33;2.67;;;1.20;;
17586;SDS011;8912;52.336;17.172;2022-08-02T09:13:07;2.97;;;1.35;;
17586;SDS011;8912;52.336;17.172;2022-08-02T09:16:03;2.17;;;1.05;;
17586;SDS011;8912;52.336;17.172;2022-08-02T09:18:40;2.03;;;1.00;;
17586;SDS011;8912;52.336;17.172;2022-08-02T09:21:13;2.38;;;1.10;;
17586;SDS011;8912;52.336;17.172;2022-08-02T09:23:44;2.47;;;0.80;;
17586;SDS011;8912;52.336;17.172;2022-08-02T09:26:14;1.48;;;0.77;;
17586;SDS011;8912;52.336;17.172;2022-08-02T09:28:45;1.75;;;1.20;;
17586;SDS011;8912;52.336;17.172;2022-08-02T09:31:18;2.03;;;1.10;;
17586;SDS011;8912;52.336;17.172;2022-08-02T09:33:50;3.25;;;1.20;;
17586;SDS011;8912;52.336;17.172;2022-08-02T09:36:20;3.40;;;1.40;;
17586;SDS011;8912;52.336;17.172;2022-08-02T09:38:54;3.92;;;1.30;;
17586;SDS011;8912;52.336;17.172;2022-08-02T09:41:25;2.40;;;1.08;;
17586;SDS011;8912;52.336;17.172;2022-08-02T09:43:57;2.33;;;1.08;;
17586;SDS011;8912;52.336;17.172;2022-08-02T09:46:34;5.57;;;1.40;;
17586;SDS011;8912;52.336;17.172;2022-08-02T09:49:06;4.07;;;1.50;;
17586;SDS011;8912;52.336;17.172;2022-08-02T09:51:36;2.60;;;1.45;;
17586;SDS011;8912;52.336;17.172;2022-08-02T09:54:06;3.38;;;1.05;;
17586;SDS011;8912;52.336;17.172;2022-08-02T09:56:38;5.00;;;1.65;;
17586;SDS011;8912;52.336;17.172;2022-08-02T09:59:09;2.72;;;1.10;;
17586;SDS011;8912;52.336;17.172;2022-08-02T10:01:40;4.32;;;1.35;;
17586;SDS011;8912;52.336;17.172;2022-08-02T10:04:18;4.75;;;1.50;;
17586;SDS011;8912;52.336;17.172;2022-08-02T10:06:51;1.70;;;1.10;;
17586;SDS011;8912;52.336;17.172;2022-08-02T10:09:20;2.83;;;1.15;;
17586;SDS011;8912;52.336;17.172;2022-08-02T10:11:50;2.67;;;1.30;;
17586;SDS011;8912;52.336;17.172;2022-08-02T10:14:19;5.60;;;1.80;;
17586;SDS011;8912;52.336;17.172;2022-08-02T10:16:50;2.58;;;1.88;;
17586;SDS011;8912;52.336;17.172;2022-08-02T10:19:21;2.25;;;1.30;;
17586;SDS011;8912;52.336;17.172;2022-08-02T10:22:10;1.85;;;1.20;;
17586;SDS011;8912;52.336;17.172;2022-08-02T10:24:40;3.33;;;1.23;;
17586;SDS011;8912;52.336;17.172;2022-08-02T10:27:15;3.92;;;1.10;;
17586;SDS011;8912;52.336;17.172;2022-08-02T10:29:46;6.82;;;1.25;;
17586;SDS011;8912;52.336;17.172;2022-08-02T10:32:25;2.75;;;1.30;;
17586;SDS011;8912;52.336;17.172;2022-08-02T10:34:57;4.63;;;1.17;;
17586;SDS011;8912;52.336;17.172;2022-08-02T10:37:50;2.97;;;1.33;;
17586;SDS011;8912;52.336;17.172;2022-08-02T10:40:21;2.92;;;1.20;;
17586;SDS011;8912;52.336;17.172;2022-08-02T10:42:52;1.60;;;1.15;;
17586;SDS011;8912;52.336;17.172;2022-08-02T10:45:26;4.18;;;1.13;;
17586;SDS011;8912;52.336;17.172;2022-08-02T10:48:02;4.88;;;1.17;;
17586;SDS011;8912;52.336;17.172;2022-08-02T10:50:52;2.72;;;1.30;;
17586;SDS011;8912;52.336;17.172;2022-08-02T10:53:25;2.60;;;0.98;;
17586;SDS011;8912;52.336;17.172;2022-08-02T10:55:55;2.33;;;1.10;;
17586;SDS011;8912;52.336;17.172;2022-08-02T10:58:26;3.80;;;1.52;;
17586;SDS011;8912;52.336;17.172;2022-08-02T11:00:57;2.90;;;1.45;;
17586;SDS011;8912;52.336;17.172;2022-08-02T11:03:33;2.72;;;1.13;;
17586;SDS011;8912;52.336;17.172;2022-08-02T11:06:07;4.07;;;1.50;;
17586;SDS011;8912;52.336;17.172;2022-08-02T11:11:58;3.03;;;1.17;;
17586;SDS011;8912;52.336;17.172;2022-08-02T11:14:29;4.05;;;1.00;;
17586;SDS011;8912;52.336;17.172;2022-08-02T11:17:06;3.67;;;1.20;;
17586;SDS011;8912;52.336;17.172;2022-08-02T11:22:44;4.78;;;1.27;;
17586;SDS011;8912;52.336;17.172;2022-08-02T11:28:22;6.45;;;1.60;;
17586;SDS011;8912;52.336;17.172;2022-08-02T11:30:55;3.85;;;1.67;;
17586;SDS011;8912;52.336;17.172;2022-08-02T11:33:31;3.80;;;1.42;;
17586;SDS011;8912;52.336;17.172;2022-08-02T11:36:04;3.45;;;1.25;;
17586;SDS011;8912;52.336;17.172;2022-08-02T11:38:34;7.50;;;1.50;;
17586;SDS011;8912;52.336;17.172;2022-08-02T11:41:03;3.30;;;1.30;;
17586;SDS011;8912;52.336;17.172;2022-08-02T11:43:36;3.90;;;1.55;;
17586;SDS011;8912;52.336;17.172;2022-08-02T11:46:11;5.32;;;1.30;;
17586;SDS011;8912;52.336;17.172;2022-08-02T11:48:41;2.83;;;1.33;;
17586;SDS011;8912;52.336;17.172;2022-08-02T11:51:13;2.22;;;1.08;;
17586;SDS011;8912;52.336;17.172;2022-08-02T11:53:44;2.72;;;0.90;;
17586;SDS011;8912;52.336;17.172;2022-08-02T11:56:16;2.55;;;1.17;;
17586;SDS011;8912;52.336;17.172;2022-08-02T11:58:59;1.45;;;1.00;;
17586;SDS011;8912;52.336;17.172;2022-08-02T12:01:29;3.95;;;1.10;;
17586;SDS011;8912;52.336;17.172;2022-08-02T12:04:15;4.55;;;1.30;;
17586;SDS011;8912;52.336;17.172;2022-08-02T12:06:54;3.20;;;1.13;;
17586;SDS011;8912;52.336;17.172;2022-08-02T12:09:25;2.33;;;1.00;;
17586;SDS011;8912;52.336;17.172;2022-08-02T12:11:55;2.67;;;1.38;;
17586;SDS011;8912;52.336;17.172;2022-08-02T12:14:26;5.55;;;1.58;;
17586;SDS011;8912;52.336;17.172;2022-08-02T12:16:58;1.73;;;1.10;;
17586;SDS011;8912;52.336;17.172;2022-08-02T12:19:44;4.78;;;1.35;;
17586;SDS011;8912;52.336;17.172;2022-08-02T12:22:17;1.40;;;0.95;;
17586;SDS011;8912;52.336;17.172;2022-08-02T12:24:53;3.78;;;1.08;;
17586;SDS011;8912;52.336;17.172;2022-08-02T12:27:31;4.88;;;1.30;;
17586;SDS011;8912;52.336;17.172;2022-08-02T12:30:03;3.58;;;1.20;;
17586;SDS011;8912;52.336;17.172;2022-08-02T12:32:34;1.73;;;1.00;;
17586;SDS011;8912;52.336;17.172;2022-08-02T12:35:07;2.33;;;1.33;;
17586;SDS011;8912;52.336;17.172;2022-08-02T12:37:39;2.25;;;1.27;;
17586;SDS011;8912;52.336;17.172;2022-08-02T12:40:19;3.08;;;1.40;;
17586;SDS011;8912;52.336;17.172;2022-08-02T12:42:53;2.83;;;1.30;;
17586;SDS011;8912;52.336;17.172;2022-08-02T12:45:23;2.95;;;1.30;;
17586;SDS011;8912;52.336;17.172;2022-08-02T12:48:05;3.97;;;1.20;;
17586;SDS011;8912;52.336;17.172;2022-08-02T12:50:34;5.38;;;1.17;;
17586;SDS011;8912;52.336;17.172;2022-08-02T12:53:07;3.83;;;1.30;;
17586;SDS011;8912;52.336;17.172;2022-08-02T12:55:45;1.25;;;1.00;;
17586;SDS011;8912;52.336;17.172;2022-08-02T12:58:28;4.10;;;1.27;;
17586;SDS011;8912;52.336;17.172;2022-08-02T13:00:58;4.80;;;1.40;;
17586;SDS011;8912;52.336;17.172;2022-08-02T13:03:28;2.70;;;1.30;;
17586;SDS011;8912;52.336;17.172;2022-08-02T13:06:17;2.35;;;1.05;;
17586;SDS011;8912;52.336;17.172;2022-08-02T13:09:11;3.88;;;1.30;;
17586;SDS011;8912;52.336;17.172;2022-08-02T13:11:42;4.95;;;1.25;;
17586;SDS011;8912;52.336;17.172;2022-08-02T13:14:11;3.22;;;1.35;;
17586;SDS011;8912;52.336;17.172;2022-08-02T13:16:41;3.67;;;1.23;;
17586;SDS011;8912;52.336;17.172;2022-08-02T13:19:11;4.15;;;1.20;;
17586;SDS011;8912;52.336;17.172;2022-08-02T13:21:42;5.63;;;1.58;;
17586;SDS011;8912;52.336;17.172;2022-08-02T13:24:31;2.75;;;1.33;;
17586;SDS011;8912;52.336;17.172;2022-08-02T13:27:20;2.58;;;1.27;;
17586;SDS011;8912;52.336;17.172;2022-08-02T13:29:49;5.50;;;1.50;;
17586;SDS011;8912;52.336;17.172;2022-08-02T13:32:17;2.90;;;1.30;;
17586;SDS011;8912;52.336;17.172;2022-08-02T13:34:46;7.20;;;1.38;;
17586;SDS011;8912;52.336;17.172;2022-08-02T13:37:16;2.95;;;1.10;;
17586;SDS011;8912;52.336;17.172;2022-08-02T13:39:47;1.35;;;0.93;;
17586;SDS011;8912;52.336;17.172;2022-08-02T13:42:35;5.28;;;1.20;;
17586;SDS011;8912;52.336;17.172;2022-08-02T13:45:04;4.38;;;1.10;;
17586;SDS011;8912;52.336;17.172;2022-08-02T13:47:40;1.67;;;1.10;;
17586;SDS011;8912;52.336;17.172;2022-08-02T13:50:29;6.25;;;1.20;;
17586;SDS011;8912;52.336;17.172;2022-08-02T13:52:58;1.55;;;0.98;;
17586;SDS011;8912;52.336;17.172;2022-08-02T13:55:28;2.10;;;1.30;;
17586;SDS011;8912;52.336;17.172;2022-08-02T13:57:57;4.03;;;1.23;;
17586;SDS011;8912;52.336;17.172;2022-08-02T14:00:25;1.38;;;1.00;;
17586;SDS011;8912;52.336;17.172;2022-08-02T14:03:02;3.33;;;1.23;;
17586;SDS011;8912;52.336;17.172;2022-08-02T14:05:33;1.90;;;1.17;;
17586;SDS011;8912;52.336;17.172;2022-08-02T14:08:13;5.40;;;1.58;;
17586;SDS011;8912;52.336;17.172;2022-08-02T14:10:45;3.78;;;1.23;;
17586;SDS011;8912;52.336;17.172;2022-08-02T14:13:14;2.90;;;1.10;;
17586;SDS011;8912;52.336;17.172;2022-08-02T14:15:43;3.17;;;1.20;;
17586;SDS011;8912;52.336;17.172;2022-08-02T14:18:12;2.47;;;1.55;;
17586;SDS011;8912;52.336;17.172;2022-08-02T14:20:42;3.63;;;1.50;;
17586;SDS011;8912;52.336;17.172;2022-08-02T14:23:11;5.43;;;1.45;;
17586;SDS011;8912;52.336;17.172;2022-08-02T14:25:40;4.80;;;1.30;;
17586;SDS011;8912;52.336;17.172;2022-08-02T14:28:10;3.63;;;1.48;;
17586;SDS011;8912;52.336;17.172;2022-08-02T14:30:38;4.30;;;1.30;;
17586;SDS011;8912;52.336;17.172;2022-08-02T14:33:07;4.53;;;1.30;;
17586;SDS011;8912;52.336;17.172;2022-08-02T14:35:36;1.40;;;1.17;;
17586;SDS011;8912;52.336;17.172;2022-08-02T14:38:05;4.85;;;1.45;;
17586;SDS011;8912;52.336;17.172;2022-08-02T14:40:34;3.45;;;1.20;;
17586;SDS011;8912;52.336;17.172;2022-08-02T14:43:03;1.67;;;1.10;;
17586;SDS011;8912;52.336;17.172;2022-08-02T14:45:35;1.80;;;1.10;;
17586;SDS011;8912;52.336;17.172;2022-08-02T14:48:08;3.15;;;1.38;;
17586;SDS011;8912;52.336;17.172;2022-08-02T14:50:38;2.15;;;1.35;;
17586;SDS011;8912;52.336;17.172;2022-08-02T14:53:07;5.97;;;1.73;;
17586;SDS011;8912;52.336;17.172;2022-08-02T14:55:39;2.63;;;1.30;;
17586;SDS011;8912;52.336;17.172;2022-08-02T14:58:09;2.10;;;1.15;;
17586;SDS011;8912;52.336;17.172;2022-08-02T15:00:39;2.22;;;1.30;;
17586;SDS011;8912;52.336;17.172;2022-08-02T15:03:10;5.75;;;1.50;;
17586;SDS011;8912;52.336;17.172;2022-08-02T15:05:38;2.55;;;1.25;;
17586;SDS011;8912;52.336;17.172;2022-08-02T15:08:07;4.25;;;1.30;;
17586;SDS011;8912;52.336;17.172;2022-08-02T15:10:36;1.58;;;1.05;;
17586;SDS011;8912;52.336;17.172;2022-08-02T15:13:04;2.22;;;1.38;;
17586;SDS011;8912;52.336;17.172;2022-08-02T15:15:35;5.43;;;1.30;;
17586;SDS011;8912;52.336;17.172;2022-08-02T15:18:11;2.25;;;1.27;;
17586;SDS011;8912;52.336;17.172;2022-08-02T15:20:40;2.70;;;1.20;;
17586;SDS011;8912;52.336;17.172;2022-08-02T15:23:23;4.10;;;1.40;;
17586;SDS011;8912;52.336;17.172;2022-08-02T15:26:03;2.80;;;1.23;;
17586;SDS011;8912;52.336;17.172;2022-08-02T15:28:32;1.50;;;1.13;;
17586;SDS011;8912;52.336;17.172;2022-08-02T15:31:01;2.85;;;1.30;;
17586;SDS011;8912;52.336;17.172;2022-08-02T15:33:31;3.13;;;1.17;;